Time;durP1;ratioP1;P1;durP2;ratioP2;P2;SDS_P1;SDS_P2;PMS_P1;PMS_P2;Temp;Humidity;BMP_temperature;BMP_pressure;BME280_temperature;BME280_humidity;BME280_pressure;Samples;Min_cycle;Max_cycle;Signal;HPM_P1;HPM_P2
2022/03/08 00:02:00;;;;;;;14.80;5.83;;;-2.20;73.80;;;;;;5037622;28;20187;-64
2022/03/08 00:04:27;;;;;;;16.97;6.43;;;-2.10;73.80;;;;;;5009569;28;20682;-63
2022/03/08 00:06:54;;;;;;;12.53;5.50;;;-2.20;73.60;;;;;;5034544;28;20266;-65
2022/03/08 00:09:19;;;;;;;9.60;5.30;;;-2.20;73.80;;;;;;5041709;28;20424;-65
2022/03/08 00:11:46;;;;;;;12.07;6.23;;;-2.10;73.70;;;;;;5038174;28;20542;-65
2022/03/08 00:14:11;;;;;;;11.80;5.90;;;-2.20;73.70;;;;;;5039753;28;20208;-65
2022/03/08 00:16:37;;;;;;;14.00;6.77;;;-2.10;73.50;;;;;;5035524;28;20522;-64
2022/03/08 00:19:03;;;;;;;17.33;6.80;;;-2.20;74.00;;;;;;5034599;28;20212;-63
2022/03/08 00:21:29;;;;;;;9.43;4.57;;;-2.20;74.40;;;;;;5033587;28;20649;-63
2022/03/08 00:23:55;;;;;;;19.33;6.90;;;-2.30;74.60;;;;;;5031953;28;20432;-64
2022/03/08 00:26:22;;;;;;;17.50;6.83;;;-2.40;75.10;;;;;;5037379;28;20213;-64
2022/03/08 00:28:47;;;;;;;11.03;5.50;;;-2.60;75.40;;;;;;5033842;28;20516;-63
2022/03/08 00:31:13;;;;;;;16.27;7.13;;;-2.60;75.90;;;;;;5036894;28;20440;-63
2022/03/08 00:33:39;;;;;;;20.60;6.60;;;-2.70;76.20;;;;;;5035549;28;20278;-63
2022/03/08 00:36:05;;;;;;;27.03;7.70;;;-2.80;76.60;;;;;;5035968;28;20194;-63
2022/03/08 00:38:31;;;;;;;13.00;7.03;;;-2.90;76.90;;;;;;5038833;28;20456;-63
2022/03/08 00:40:57;;;;;;;14.93;6.90;;;-3.00;77.90;;;;;;5035962;28;20468;-63
2022/03/08 00:43:23;;;;;;;14.90;7.50;;;-3.10;77.60;;;;;;5035294;28;20757;-63
2022/03/08 00:45:48;;;;;;;14.10;6.97;;;-3.20;77.80;;;;;;5035323;28;20190;-64
2022/03/08 00:48:14;;;;;;;14.07;6.83;;;-3.30;78.60;;;;;;5032700;28;20225;-67
2022/03/08 00:50:40;;;;;;;13.30;7.37;;;-3.40;78.70;;;;;;5039183;28;20205;-63
2022/03/08 00:53:05;;;;;;;18.33;7.00;;;-3.50;78.80;;;;;;5030410;28;20710;-64
2022/03/08 00:55:32;;;;;;;15.10;7.10;;;-3.50;79.00;;;;;;5036511;28;20186;-66
2022/03/08 00:57:59;;;;;;;19.50;7.33;;;-3.60;79.40;;;;;;5028373;28;20725;-66
2022/03/08 01:00:26;;;;;;;16.73;8.20;;;-3.60;79.60;;;;;;5033618;28;20484;-65
2022/03/08 01:02:52;;;;;;;16.60;7.47;;;-3.60;80.70;;;;;;5012978;28;20445;-66
2022/03/08 01:05:19;;;;;;;6.40;3.00;;;-3.60;81.00;;;;;;5026130;28;20484;-66
2022/03/08 01:07:45;;;;;;;16.70;7.80;;;-3.60;81.10;;;;;;5031004;28;20731;-65
2022/03/08 01:10:15;;;;;;;14.40;7.30;;;-3.70;81.30;;;;;;5034202;28;20490;-65
2022/03/08 01:12:41;;;;;;;22.00;7.47;;;-3.70;81.40;;;;;;5039192;28;20708;-64
2022/03/08 01:15:08;;;;;;;21.37;8.30;;;-3.70;81.60;;;;;;5042424;28;20541;-65
2022/03/08 01:17:34;;;;;;;15.87;8.27;;;-3.70;81.30;;;;;;5041125;28;20440;-65
2022/03/08 01:20:00;;;;;;;24.27;9.50;;;-3.80;81.30;;;;;;5040841;28;20954;-65
2022/03/08 01:22:26;;;;;;;16.43;8.80;;;-3.80;82.10;;;;;;5035498;28;20431;-65
2022/03/08 01:24:52;;;;;;;16.67;8.10;;;-3.80;82.20;;;;;;5025296;28;20282;-65
2022/03/08 01:27:17;;;;;;;23.83;9.83;;;-3.80;82.10;;;;;;5040604;28;20219;-65
2022/03/08 01:29:43;;;;;;;16.80;7.90;;;-3.90;82.50;;;;;;5041658;28;20525;-65
2022/03/08 01:32:09;;;;;;;32.93;11.03;;;-3.90;82.50;;;;;;5039009;28;20241;-65
2022/03/08 01:34:35;;;;;;;22.20;9.90;;;-3.90;82.00;;;;;;5034795;28;20183;-63
2022/03/08 01:37:02;;;;;;;23.63;10.53;;;-3.90;82.60;;;;;;5036077;28;20194;-62
2022/03/08 01:39:27;;;;;;;21.70;10.47;;;-4.00;82.90;;;;;;5038244;28;20189;-64
2022/03/08 01:41:53;;;;;;;30.63;13.30;;;-4.00;83.10;;;;;;5030161;28;20435;-65
2022/03/08 01:44:19;;;;;;;27.47;11.57;;;-4.00;82.90;;;;;;5037380;28;20186;-65
2022/03/08 01:46:45;;;;;;;36.20;12.57;;;-4.00;83.00;;;;;;5034156;28;20720;-65
2022/03/08 01:49:11;;;;;;;42.73;13.87;;;-4.10;83.10;;;;;;5034965;28;20436;-65
2022/03/08 01:51:39;;;;;;;29.00;11.33;;;-4.10;83.50;;;;;;5032513;28;20428;-64
2022/03/08 01:54:06;;;;;;;25.57;11.20;;;-4.10;83.00;;;;;;5041248;28;20839;-65
2022/03/08 01:56:33;;;;;;;24.67;9.60;;;-4.10;83.30;;;;;;5026792;28;20439;-65
2022/03/08 01:59:00;;;;;;;27.20;10.00;;;-4.20;83.10;;;;;;5026926;28;20453;-64
2022/03/08 02:01:25;;;;;;;29.13;10.10;;;-4.20;83.20;;;;;;5031868;28;20465;-65
2022/03/08 02:03:51;;;;;;;18.37;9.10;;;-4.20;83.30;;;;;;5037232;28;20436;-64
2022/03/08 02:06:17;;;;;;;20.93;9.23;;;-4.20;83.50;;;;;;5037418;28;20707;-66
2022/03/08 02:08:43;;;;;;;22.17;9.77;;;-4.10;83.60;;;;;;5038668;28;20219;-65
2022/03/08 02:11:08;;;;;;;27.33;11.60;;;-4.20;83.70;;;;;;5035763;28;20743;-65
2022/03/08 02:13:34;;;;;;;24.20;9.20;;;-4.30;83.50;;;;;;5041224;28;20209;-65
2022/03/08 02:15:59;;;;;;;27.27;11.20;;;-4.40;83.50;;;;;;5036062;28;20635;-66
2022/03/08 02:18:25;;;;;;;32.87;9.87;;;-4.60;83.80;;;;;;5030872;28;20208;-65
2022/03/08 02:20:51;;;;;;;19.30;9.87;;;-4.70;84.30;;;;;;5033014;28;20185;-64
2022/03/08 02:23:16;;;;;;;22.30;9.87;;;-4.80;85.30;;;;;;5034104;28;20201;-65
2022/03/08 02:25:42;;;;;;;23.73;10.70;;;-4.80;85.50;;;;;;5034039;28;20186;-65
2022/03/08 02:28:08;;;;;;;22.27;10.63;;;-4.70;85.60;;;;;;5036988;28;20264;-65
2022/03/08 02:30:34;;;;;;;21.40;10.00;;;-4.70;85.80;;;;;;5025770;28;20260;-66
2022/03/08 02:33:00;;;;;;;21.37;10.30;;;-4.70;85.40;;;;;;5031729;28;20491;-65
2022/03/08 02:35:28;;;;;;;19.77;9.70;;;-4.70;85.80;;;;;;5016265;28;21182;-62
2022/03/08 02:38:00;;;;;;;16.03;7.30;;;-4.70;85.30;;;;;;5029643;28;20295;-63
2022/03/08 02:40:28;;;;;;;20.77;8.63;;;-4.80;85.20;;;;;;5033512;28;20517;-65
2022/03/08 02:42:55;;;;;;;16.10;8.70;;;-4.80;85.40;;;;;;5037388;28;20463;-65
2022/03/08 02:45:21;;;;;;;16.33;8.00;;;-4.80;85.90;;;;;;5030854;28;22078;-65
2022/03/08 02:47:47;;;;;;;3.00;1.23;;;-4.80;85.50;;;;;;5026664;28;20444;-64
2022/03/08 02:50:14;;;;;;;21.17;8.80;;;-4.90;85.30;;;;;;5031758;28;20448;-65
2022/03/08 02:52:41;;;;;;;1.50;0.77;;;-4.90;85.50;;;;;;5036996;28;20937;-65
2022/03/08 02:55:08;;;;;;;3.13;1.67;;;-5.00;86.70;;;;;;5037640;28;20412;-64
2022/03/08 02:57:34;;;;;;;2.43;1.50;;;-5.00;86.60;;;;;;5035815;28;20453;-64
2022/03/08 02:59:59;;;;;;;22.83;9.37;;;-5.00;86.50;;;;;;5036568;28;20439;-65
2022/03/08 03:02:25;;;;;;;10.47;5.90;;;-5.00;86.50;;;;;;5033247;28;20186;-64
2022/03/08 03:04:51;;;;;;;2.70;1.43;;;-5.10;86.60;;;;;;5037325;28;20208;-65
2022/03/08 03:07:17;;;;;;;2.70;1.70;;;-5.10;86.60;;;;;;5004451;28;20599;-65
2022/03/08 03:09:42;;;;;;;18.43;8.90;;;-5.10;86.00;;;;;;5035959;28;20200;-65
2022/03/08 03:12:08;;;;;;;21.47;8.13;;;-5.10;86.30;;;;;;5032208;28;20177;-65
2022/03/08 03:14:35;;;;;;;1.10;0.50;;;-5.20;86.10;;;;;;5039811;28;20264;-64
2022/03/08 03:17:01;;;;;;;17.83;7.37;;;-5.20;86.50;;;;;;5025456;28;20453;-64
2022/03/08 03:19:26;;;;;;;1.20;0.50;;;-5.20;86.30;;;;;;5032640;28;20782;-63
2022/03/08 03:21:52;;;;;;;20.23;8.43;;;-5.20;86.40;;;;;;5037425;28;20247;-65
2022/03/08 03:24:17;;;;;;;20.43;8.10;;;-5.20;86.40;;;;;;5038511;28;20232;-64
2022/03/08 03:26:43;;;;;;;20.87;7.40;;;-5.20;86.50;;;;;;5040488;28;20217;-64
2022/03/08 03:29:09;;;;;;;1.50;0.80;;;-5.20;86.20;;;;;;5038103;28;20740;-65
2022/03/08 03:31:35;;;;;;;15.03;7.67;;;-5.30;86.20;;;;;;5040306;28;20186;-65
2022/03/08 03:34:01;;;;;;;8.90;4.33;;;-5.40;86.60;;;;;;5034868;28;20740;-65
2022/03/08 03:36:27;;;;;;;20.40;7.53;;;-5.50;87.00;;;;;;5031283;28;20245;-65
2022/03/08 03:38:53;;;;;;;8.43;2.97;;;-5.50;87.30;;;;;;5038047;28;20210;-63
2022/03/08 03:41:19;;;;;;;13.27;6.67;;;-5.50;87.80;;;;;;5030043;28;20178;-65
2022/03/08 03:43:45;;;;;;;19.70;8.17;;;-5.40;88.00;;;;;;5040758;28;20424;-64
2022/03/08 03:46:10;;;;;;;3.40;2.00;;;-5.40;87.50;;;;;;5014202;28;20790;-64
2022/03/08 03:48:36;;;;;;;19.87;7.40;;;-5.40;87.10;;;;;;5039433;28;20209;-65
2022/03/08 03:51:02;;;;;;;19.50;9.70;;;-5.50;86.90;;;;;;5045038;28;20178;-65
2022/03/08 03:53:28;;;;;;;22.57;8.53;;;-5.40;87.50;;;;;;5045301;28;20206;-65
2022/03/08 03:55:54;;;;;;;2.90;1.23;;;-5.50;87.40;;;;;;5043931;28;20623;-65
2022/03/08 03:58:19;;;;;;;19.30;8.83;;;-5.50;87.10;;;;;;5036251;28;20209;-65
2022/03/08 04:00:45;;;;;;;1.10;0.50;;;-5.50;87.00;;;;;;5043220;28;20220;-65
2022/03/08 04:03:13;;;;;;;22.37;8.27;;;-5.60;86.80;;;;;;5039858;28;20641;-63
2022/03/08 04:05:38;;;;;;;25.17;7.50;;;-5.50;87.70;;;;;;5038088;28;20185;-65
2022/03/08 04:08:04;;;;;;;7.07;3.50;;;-5.60;87.40;;;;;;5039465;28;20466;-64
2022/03/08 04:10:30;;;;;;;18.03;8.33;;;-5.60;87.30;;;;;;5037335;28;20206;-65
2022/03/08 04:12:56;;;;;;;16.40;8.30;;;-5.60;87.40;;;;;;5038758;28;20920;-64
2022/03/08 04:15:21;;;;;;;4.33;1.70;;;-5.60;87.20;;;;;;5037266;28;20301;-65
2022/03/08 04:17:47;;;;;;;20.10;8.40;;;-5.60;87.70;;;;;;5034583;28;20353;-65
2022/03/08 04:20:13;;;;;;;16.27;7.60;;;-5.70;87.70;;;;;;5039286;28;20186;-65
2022/03/08 04:22:38;;;;;;;18.53;9.23;;;-5.60;88.10;;;;;;5040058;28;20178;-64
2022/03/08 04:25:04;;;;;;;19.60;7.57;;;-5.60;88.00;;;;;;5040691;28;20186;-64
2022/03/08 04:27:30;;;;;;;8.10;3.10;;;-5.60;88.00;;;;;;5025824;28;20757;-64
2022/03/08 04:29:56;;;;;;;21.30;9.60;;;-5.60;88.40;;;;;;5034156;28;20488;-64
2022/03/08 04:32:22;;;;;;;22.10;9.23;;;-5.60;87.90;;;;;;5027266;28;20194;-64
2022/03/08 04:34:47;;;;;;;19.50;8.83;;;-5.60;88.10;;;;;;5012245;28;20193;-65
2022/03/08 04:37:13;;;;;;;3.63;2.50;;;-5.60;88.40;;;;;;5031688;28;20449;-64
2022/03/08 04:39:39;;;;;;;44.27;17.87;;;-5.50;88.40;;;;;;5036910;28;20188;-63
2022/03/08 04:42:04;;;;;;;33.17;13.83;;;-5.50;87.90;;;;;;5032405;28;20922;-62
2022/03/08 04:44:30;;;;;;;36.30;13.23;;;-5.40;87.50;;;;;;5041186;28;20186;-63
2022/03/08 04:46:56;;;;;;;43.83;16.13;;;-5.50;87.00;;;;;;5036444;28;20627;-64
2022/03/08 04:49:22;;;;;;;35.53;13.30;;;-5.50;87.10;;;;;;5038553;28;20600;-64
2022/03/08 04:51:47;;;;;;;29.50;11.10;;;-5.60;87.70;;;;;;5041248;28;21175;-62
2022/03/08 04:54:13;;;;;;;41.47;13.07;;;-5.70;87.20;;;;;;5033207;28;20700;-64
2022/03/08 04:56:38;;;;;;;30.77;11.13;;;-5.80;87.80;;;;;;5040547;28;20269;-63
2022/03/08 04:59:04;;;;;;;21.13;10.43;;;-5.90;88.70;;;;;;5036039;28;21024;-62
2022/03/08 05:01:30;;;;;;;1.80;1.10;;;-5.90;89.10;;;;;;5027645;28;20202;-63
2022/03/08 05:03:56;;;;;;;23.07;9.63;;;-6.00;90.00;;;;;;5027526;28;20719;-64
2022/03/08 05:06:22;;;;;;;22.77;8.50;;;-6.10;88.70;;;;;;5024597;28;20189;-63
2022/03/08 05:08:48;;;;;;;17.13;8.33;;;-6.10;89.60;;;;;;5022969;28;20539;-62
2022/03/08 05:11:13;;;;;;;16.40;7.73;;;-6.00;90.00;;;;;;5025116;28;20276;-63
2022/03/08 05:13:39;;;;;;;17.40;9.00;;;-6.00;90.00;;;;;;5022264;28;20198;-64
2022/03/08 05:16:05;;;;;;;1.67;0.73;;;-6.00;89.50;;;;;;5031086;28;20179;-63
2022/03/08 05:18:31;;;;;;;16.93;7.90;;;-6.00;89.40;;;;;;5035556;28;20233;-63
2022/03/08 05:20:57;;;;;;;4.60;1.23;;;-6.00;89.40;;;;;;5032205;28;20799;-63
2022/03/08 05:23:23;;;;;;;20.93;9.60;;;-5.90;89.50;;;;;;5030699;28;20448;-63
2022/03/08 05:25:48;;;;;;;22.87;8.57;;;-5.90;89.10;;;;;;5033004;28;20281;-62
2022/03/08 05:28:14;;;;;;;15.23;8.33;;;-5.90;89.20;;;;;;5032358;28;20210;-63
2022/03/08 05:30:40;;;;;;;24.53;9.50;;;-5.90;89.10;;;;;;5034925;28;20185;-64
2022/03/08 05:33:06;;;;;;;43.43;17.13;;;-6.00;88.70;;;;;;5029098;28;20217;-64
2022/03/08 05:35:32;;;;;;;60.20;18.63;;;-6.00;89.30;;;;;;5030973;28;20428;-64
2022/03/08 05:37:57;;;;;;;37.83;17.00;;;-6.00;89.30;;;;;;5029263;28;20646;-63
2022/03/08 05:40:23;;;;;;;23.93;10.40;;;-5.90;89.10;;;;;;5033881;28;20245;-64
2022/03/08 05:42:48;;;;;;;1.73;0.80;;;-5.90;89.10;;;;;;5030944;28;20208;-63
2022/03/08 05:45:15;;;;;;;2.13;1.13;;;-5.90;89.10;;;;;;5026195;28;20193;-64
2022/03/08 05:47:41;;;;;;;12.73;3.80;;;-5.80;89.30;;;;;;5038979;28;20319;-65
2022/03/08 05:50:08;;;;;;;24.50;10.73;;;-6.00;88.70;;;;;;5037671;28;20465;-63
2022/03/08 05:52:34;;;;;;;39.83;11.90;;;-6.00;89.00;;;;;;5038730;28;20460;-63
2022/03/08 05:54:59;;;;;;;25.60;11.90;;;-6.10;89.40;;;;;;5036322;28;20439;-63
2022/03/08 05:57:25;;;;;;;28.73;11.50;;;-6.10;89.60;;;;;;5035281;28;20205;-63
2022/03/08 05:59:51;;;;;;;34.03;11.57;;;-6.20;89.20;;;;;;5040119;28;20198;-64
2022/03/08 06:02:17;;;;;;;43.00;14.83;;;-6.10;90.00;;;;;;5035524;28;20979;-62
2022/03/08 06:04:43;;;;;;;36.10;13.23;;;-6.10;89.80;;;;;;5030140;28;20182;-63
2022/03/08 06:07:09;;;;;;;29.73;11.73;;;-6.10;90.30;;;;;;5008056;28;21005;-63
2022/03/08 06:09:35;;;;;;;24.50;11.70;;;-6.00;90.20;;;;;;5032821;28;20421;-64
2022/03/08 06:12:00;;;;;;;6.00;3.70;;;-6.00;90.10;;;;;;5033792;28;20310;-64
2022/03/08 06:14:27;;;;;;;24.23;10.23;;;-6.00;90.20;;;;;;5039733;28;20629;-63
2022/03/08 06:16:53;;;;;;;25.00;9.70;;;-5.90;90.00;;;;;;5031934;28;20183;-63
2022/03/08 06:19:19;;;;;;;1.10;0.50;;;-5.90;90.20;;;;;;5037905;28;20760;-64
2022/03/08 06:21:44;;;;;;;27.37;10.10;;;-5.80;90.00;;;;;;5024842;28;20193;-62
2022/03/08 06:24:11;;;;;;;25.20;10.40;;;-5.80;89.80;;;;;;5038590;28;20181;-63
2022/03/08 06:26:37;;;;;;;33.07;9.80;;;-5.70;90.00;;;;;;5034332;28;20515;-64
2022/03/08 06:29:03;;;;;;;21.67;8.47;;;-5.70;89.60;;;;;;5044098;28;20517;-64
2022/03/08 06:31:28;;;;;;;18.70;9.33;;;-5.70;90.00;;;;;;5033684;28;20914;-64
2022/03/08 06:33:54;;;;;;;26.40;9.97;;;-5.50;90.50;;;;;;5028175;28;20214;-63
2022/03/08 06:36:20;;;;;;;15.50;5.80;;;-5.50;90.60;;;;;;5030765;28;20236;-66
2022/03/08 06:38:46;;;;;;;22.13;9.73;;;-5.40;90.00;;;;;;5027510;28;20206;-63
2022/03/08 06:41:11;;;;;;;1.87;1.23;;;-5.20;89.60;;;;;;5028408;28;20179;-63
2022/03/08 06:43:39;;;;;;;15.00;6.80;;;-5.20;88.90;;;;;;5037043;28;20182;-64
2022/03/08 06:46:05;;;;;;;14.80;6.80;;;-5.10;88.70;;;;;;5031229;28;20209;-63
2022/03/08 06:48:30;;;;;;;13.67;6.93;;;-5.00;88.30;;;;;;5028814;28;20444;-64
2022/03/08 06:50:56;;;;;;;1.77;0.87;;;-4.80;88.90;;;;;;5028244;28;20436;-61
2022/03/08 06:53:22;;;;;;;21.33;6.20;;;-4.60;87.80;;;;;;5035238;28;20581;-63
2022/03/08 06:55:47;;;;;;;17.70;7.50;;;-4.50;87.50;;;;;;5038603;28;20189;-64
2022/03/08 06:58:13;;;;;;;12.37;4.00;;;-4.30;86.90;;;;;;5038194;28;20230;-64
2022/03/08 07:00:39;;;;;;;13.17;4.23;;;-4.20;86.70;;;;;;5038331;28;20194;-64
2022/03/08 07:03:04;;;;;;;16.47;6.97;;;-4.10;86.50;;;;;;5032276;28;20194;-63
2022/03/08 07:05:30;;;;;;;4.70;2.07;;;-4.00;86.60;;;;;;5029472;28;20191;-65
2022/03/08 07:07:55;;;;;;;22.00;9.03;;;-3.90;86.70;;;;;;5027519;28;20207;-65
2022/03/08 07:10:21;;;;;;;12.67;6.63;;;-3.90;86.70;;;;;;5019870;28;20256;-65
2022/03/08 07:12:47;;;;;;;17.93;7.93;;;-3.80;86.60;;;;;;5022380;28;20203;-66
2022/03/08 07:15:14;;;;;;;22.73;9.47;;;-3.70;86.60;;;;;;5024830;28;20290;-65
2022/03/08 07:17:44;;;;;;;17.57;8.60;;;-3.50;86.60;;;;;;5027053;28;20186;-62
2022/03/08 07:20:10;;;;;;;21.10;8.20;;;-3.40;86.50;;;;;;5024785;28;20781;-64
2022/03/08 07:22:36;;;;;;;4.63;2.17;;;-3.20;85.60;;;;;;5027780;28;20523;-66
2022/03/08 07:25:02;;;;;;;15.60;6.23;;;-2.90;85.60;;;;;;5008044;28;20500;-64
2022/03/08 07:27:28;;;;;;;8.90;4.70;;;-2.70;85.50;;;;;;5030886;28;20582;-65
2022/03/08 07:29:54;;;;;;;10.40;4.67;;;-2.30;84.50;;;;;;5024221;28;21079;-64
2022/03/08 07:32:19;;;;;;;10.30;3.97;;;-1.90;83.00;;;;;;5031748;28;20233;-65
2022/03/08 07:34:45;;;;;;;1.20;0.60;;;-1.50;81.50;;;;;;5030491;28;20212;-64
2022/03/08 07:37:10;;;;;;;10.30;4.60;;;-1.00;79.30;;;;;;5028041;28;20210;-66
2022/03/08 07:39:36;;;;;;;17.83;5.00;;;-0.60;77.90;;;;;;5031050;28;20178;-65
2022/03/08 07:42:02;;;;;;;10.83;5.80;;;-0.30;76.50;;;;;;5033737;28;20253;-65
2022/03/08 07:44:28;;;;;;;12.07;4.60;;;0.00;75.60;;;;;;5025179;28;20890;-66
2022/03/08 07:46:55;;;;;;;6.93;3.57;;;0.50;74.20;;;;;;5030144;28;20428;-64
2022/03/08 07:49:22;;;;;;;8.23;3.80;;;1.00;72.80;;;;;;5038067;28;20666;-66
2022/03/08 07:51:47;;;;;;;14.70;4.77;;;1.70;72.00;;;;;;5037632;28;20435;-66
2022/03/08 07:54:13;;;;;;;8.30;4.50;;;2.20;70.00;;;;;;5039634;28;20456;-68
2022/03/08 07:56:39;;;;;;;5.83;2.97;;;2.60;68.60;;;;;;5035394;28;20254;-66
2022/03/08 07:59:05;;;;;;;6.40;4.10;;;3.00;67.30;;;;;;5028332;28;20457;-67
2022/03/08 08:01:31;;;;;;;6.03;3.53;;;3.90;66.30;;;;;;5034279;28;20859;-66
2022/03/08 08:03:57;;;;;;;10.13;3.63;;;3.80;64.70;;;;;;5038929;28;20174;-66
2022/03/08 08:06:22;;;;;;;7.00;3.80;;;4.50;65.50;;;;;;5031864;28;20193;-65
2022/03/08 08:08:48;;;;;;;8.50;4.07;;;5.30;64.20;;;;;;5016726;28;20229;-62
2022/03/08 08:11:14;;;;;;;5.87;3.50;;;5.10;62.50;;;;;;5027841;28;20201;-65
2022/03/08 08:13:39;;;;;;;10.67;3.80;;;5.20;63.80;;;;;;5040555;28;20749;-65
2022/03/08 08:16:05;;;;;;;7.90;3.50;;;5.30;63.40;;;;;;5018840;28;20666;-65
2022/03/08 08:18:31;;;;;;;8.70;3.53;;;6.10;62.50;;;;;;5038959;28;20201;-66
2022/03/08 08:20:56;;;;;;;8.43;3.97;;;5.70;61.50;;;;;;5033141;28;20624;-67
2022/03/08 08:23:23;;;;;;;10.10;4.00;;;5.60;62.50;;;;;;5037640;28;20352;-65
2022/03/08 08:25:49;;;;;;;7.20;4.30;;;5.40;63.40;;;;;;5028649;28;20178;-65
2022/03/08 08:28:14;;;;;;;7.83;3.80;;;6.10;62.40;;;;;;5028602;28;20516;-66
2022/03/08 08:30:40;;;;;;;4.63;2.67;;;6.20;62.30;;;;;;5031976;28;20300;-66
2022/03/08 08:33:06;;;;;;;10.33;3.40;;;6.10;61.10;;;;;;5028014;28;20209;-66
2022/03/08 08:35:32;;;;;;;5.20;2.50;;;5.70;61.60;;;;;;5024593;28;20650;-65
2022/03/08 08:37:58;;;;;;;8.03;3.77;;;6.00;62.60;;;;;;5029003;28;20618;-66
2022/03/08 08:40:23;;;;;;;10.00;4.83;;;6.40;61.30;;;;;;5026823;28;20483;-66
2022/03/08 08:42:49;;;;;;;8.63;3.67;;;6.90;59.90;;;;;;5026157;28;20192;-67
2022/03/08 08:45:15;;;;;;;6.47;3.43;;;7.00;59.20;;;;;;5032436;28;20614;-66
2022/03/08 08:47:40;;;;;;;6.23;3.80;;;6.40;59.00;;;;;;5030642;28;20636;-66
2022/03/08 08:50:06;;;;;;;8.37;4.43;;;6.10;60.90;;;;;;5030973;28;20194;-65
2022/03/08 08:52:33;;;;;;;7.60;3.43;;;6.50;61.20;;;;;;5024525;28;20257;-64
2022/03/08 08:54:59;;;;;;;7.40;3.70;;;6.50;60.80;;;;;;5029879;28;20184;-65
2022/03/08 08:57:25;;;;;;;7.80;4.00;;;6.40;59.90;;;;;;5031658;28;20432;-64
2022/03/08 08:59:51;;;;;;;7.70;3.67;;;6.40;59.10;;;;;;5027397;28;20360;-64
2022/03/08 09:02:16;;;;;;;5.00;3.53;;;6.30;59.10;;;;;;5024625;28;20660;-65
2022/03/08 09:04:42;;;;;;;10.47;3.93;;;6.50;59.40;;;;;;5036446;28;20185;-64
2022/03/08 09:07:08;;;;;;;6.80;3.20;;;6.50;58.30;;;;;;5024579;28;20685;-65
2022/03/08 09:09:33;;;;;;;5.90;3.67;;;6.40;59.10;;;;;;5027616;28;20341;-65
2022/03/08 09:11:59;;;;;;;7.27;3.53;;;6.10;59.50;;;;;;5029791;28;20194;-67
2022/03/08 09:14:25;;;;;;;17.60;3.10;;;6.40;59.10;;;;;;5038305;28;20300;-65
2022/03/08 09:16:51;;;;;;;7.23;3.67;;;6.40;57.70;;;;;;5040754;28;20200;-65
2022/03/08 09:19:17;;;;;;;5.40;3.60;;;6.00;59.00;;;;;;5036918;28;20943;-65
2022/03/08 09:21:42;;;;;;;5.80;2.70;;;6.40;58.50;;;;;;5038668;28;20681;-66
2022/03/08 09:24:08;;;;;;;4.50;2.60;;;6.60;57.20;;;;;;5023422;28;20178;-66
2022/03/08 09:26:34;;;;;;;4.93;2.80;;;6.00;57.10;;;;;;5024868;28;20721;-67
2022/03/08 09:28:59;;;;;;;4.00;2.83;;;6.00;58.40;;;;;;5036692;28;20240;-65
2022/03/08 09:31:25;;;;;;;5.20;3.03;;;6.00;58.70;;;;;;5018009;28;20193;-66
2022/03/08 09:33:51;;;;;;;4.87;2.63;;;5.60;57.30;;;;;;5013851;28;20867;-66
2022/03/08 09:36:16;;;;;;;7.53;3.43;;;5.70;58.00;;;;;;5031452;28;20190;-65
2022/03/08 09:38:42;;;;;;;5.33;2.30;;;5.90;56.80;;;;;;5039141;28;20226;-65
2022/03/08 09:41:09;;;;;;;7.20;3.50;;;5.70;57.10;;;;;;5030537;28;20193;-65
2022/03/08 09:43:37;;;;;;;5.20;3.00;;;5.40;57.60;;;;;;5017753;28;20187;-65
2022/03/08 09:46:04;;;;;;;9.33;3.50;;;5.40;58.10;;;;;;5016951;28;20423;-65
2022/03/08 09:48:30;;;;;;;7.20;3.23;;;5.40;57.80;;;;;;5041574;28;20466;-64
2022/03/08 09:51:03;;;;;;;4.70;3.00;;;5.10;58.10;;;;;;5035599;28;20583;-65
2022/03/08 09:53:30;;;;;;;5.23;3.10;;;5.00;59.40;;;;;;5035849;28;20221;-65
2022/03/08 09:56:00;;;;;;;4.60;2.87;;;4.80;58.60;;;;;;5025866;28;20531;-66
2022/03/08 09:58:26;;;;;;;8.20;3.77;;;4.80;59.60;;;;;;5037852;28;20441;-66
2022/03/08 10:00:55;;;;;;;4.83;2.67;;;4.80;59.60;;;;;;5036898;28;20522;-63
2022/03/08 10:03:39;;;;;;;7.47;3.27;;;4.80;59.40;;;;;;5039533;28;20425;-66
2022/03/08 10:06:06;;;;;;;7.07;3.10;;;4.80;58.20;;;;;;5016243;28;21014;-66
2022/03/08 10:08:32;;;;;;;6.80;2.90;;;4.80;58.90;;;;;;5037117;28;20447;-65
2022/03/08 10:11:07;;;;;;;10.60;3.37;;;4.80;58.60;;;;;;5037912;28;20434;-65
2022/03/08 10:13:38;;;;;;;6.23;3.20;;;4.80;58.40;;;;;;5030937;28;20661;-66
2022/03/08 10:16:08;;;;;;;5.70;2.57;;;4.60;58.60;;;;;;5034903;28;20779;-65
2022/03/08 10:18:37;;;;;;;5.00;2.80;;;4.80;59.20;;;;;;5035387;28;20441;-66
2022/03/08 10:21:03;;;;;;;8.63;3.30;;;4.80;59.30;;;;;;5036960;28;20417;-65
2022/03/08 10:23:38;;;;;;;8.47;3.30;;;5.00;59.30;;;;;;5034497;28;20456;-66
2022/03/08 10:26:04;;;;;;;6.70;2.93;;;5.00;58.70;;;;;;5038775;28;20427;-65
2022/03/08 10:28:30;;;;;;;6.10;2.77;;;5.00;59.00;;;;;;5027517;28;20451;-66
2022/03/08 10:30:56;;;;;;;7.07;3.60;;;5.20;59.40;;;;;;5010950;28;20437;-66
2022/03/08 10:33:33;;;;;;;7.80;3.80;;;5.30;58.90;;;;;;5034827;28;20285;-66
2022/03/08 10:35:59;;;;;;;6.27;3.10;;;5.40;58.50;;;;;;5027335;28;20284;-65
2022/03/08 10:38:24;;;;;;;8.57;2.87;;;5.60;57.70;;;;;;5046874;28;20451;-65
2022/03/08 10:40:50;;;;;;;3.57;2.23;;;5.30;56.00;;;;;;5033630;28;20174;-64
2022/03/08 10:43:17;;;;;;;4.87;2.70;;;5.50;56.50;;;;;;5035380;28;20178;-64
2022/03/08 10:45:44;;;;;;;6.70;3.20;;;5.60;56.20;;;;;;5041379;28;20795;-65
2022/03/08 10:48:13;;;;;;;5.70;2.70;;;5.60;56.50;;;;;;5043828;28;20436;-65
2022/03/08 10:50:40;;;;;;;6.27;2.47;;;5.80;55.50;;;;;;5038180;28;20453;-65
2022/03/08 10:53:08;;;;;;;6.70;3.00;;;6.00;56.40;;;;;;5022923;28;20826;-65
2022/03/08 10:55:39;;;;;;;4.90;2.67;;;6.10;55.20;;;;;;5041647;28;20748;-64
2022/03/08 10:58:08;;;;;;;4.30;1.80;;;6.20;55.00;;;;;;5039082;28;20464;-66
2022/03/08 11:00:37;;;;;;;5.53;2.87;;;6.30;54.70;;;;;;5026794;28;20532;-65
2022/03/08 11:03:05;;;;;;;7.50;3.27;;;6.30;54.20;;;;;;5027567;28;20540;-65
2022/03/08 11:05:38;;;;;;;5.30;2.80;;;6.40;53.70;;;;;;5028896;28;20462;-66
2022/03/08 11:08:05;;;;;;;6.10;2.90;;;6.50;54.50;;;;;;5029663;28;20441;-65
2022/03/08 11:10:32;;;;;;;11.10;3.20;;;6.60;53.50;;;;;;5026034;28;20424;-64
2022/03/08 11:12:59;;;;;;;8.07;2.40;;;6.70;52.60;;;;;;5030791;28;20461;-65
2022/03/08 11:15:27;;;;;;;4.97;2.47;;;6.50;51.90;;;;;;5030133;28;21056;-64
2022/03/08 11:17:54;;;;;;;5.57;2.87;;;6.60;52.20;;;;;;5028872;28;20511;-65
2022/03/08 11:20:22;;;;;;;4.43;2.43;;;6.60;52.20;;;;;;5024937;28;20515;-65
2022/03/08 11:22:51;;;;;;;5.53;2.57;;;6.60;51.80;;;;;;5039948;28;20420;-65
2022/03/08 11:25:18;;;;;;;5.07;2.80;;;6.50;52.20;;;;;;5046354;28;20420;-65
2022/03/08 11:27:46;;;;;;;7.67;2.97;;;6.50;52.40;;;;;;5028684;28;20837;-65
2022/03/08 11:30:15;;;;;;;6.20;3.00;;;6.60;52.50;;;;;;5028702;28;20445;-65
2022/03/08 11:33:02;;;;;;;6.20;3.20;;;6.60;51.80;;;;;;5027136;28;20425;-65
2022/03/08 11:35:37;;;;;;;7.30;3.50;;;6.80;52.30;;;;;;5032883;28;20412;-65
2022/03/08 11:38:04;;;;;;;4.80;2.50;;;7.00;51.10;;;;;;5037080;28;20452;-67
2022/03/08 11:40:33;;;;;;;11.60;3.90;;;6.70;51.50;;;;;;5032785;28;20444;-65
2022/03/08 11:43:04;;;;;;;5.43;2.80;;;6.80;51.60;;;;;;5026886;28;20544;-65
2022/03/08 11:45:31;;;;;;;5.17;2.90;;;6.90;52.50;;;;;;5020882;28;21247;-65
2022/03/08 11:47:58;;;;;;;7.07;3.37;;;7.30;51.60;;;;;;5033972;28;20544;-65
2022/03/08 11:50:35;;;;;;;7.93;3.70;;;7.50;52.20;;;;;;5032752;28;20919;-65
2022/03/08 11:53:06;;;;;;;4.30;2.50;;;7.50;51.80;;;;;;5025790;28;21352;-65
2022/03/08 11:55:44;;;;;;;5.03;2.57;;;7.50;51.40;;;;;;5029332;28;21035;-66
2022/03/08 11:58:23;;;;;;;5.50;2.60;;;7.50;51.10;;;;;;5038994;28;20436;-67
2022/03/08 12:00:53;;;;;;;5.60;2.73;;;7.60;52.00;;;;;;5029243;28;20429;-67
2022/03/08 12:03:24;;;;;;;7.40;3.10;;;7.90;50.70;;;;;;5028584;28;20507;-65
2022/03/08 12:06:09;;;;;;;7.67;3.20;;;7.60;49.90;;;;;;5030777;28;20417;-67
2022/03/08 12:08:38;;;;;;;7.77;3.90;;;7.70;51.70;;;;;;5030991;28;20448;-66
2022/03/08 12:11:27;;;;;;;10.33;3.43;;;7.90;49.90;;;;;;5031505;28;20416;-66
2022/03/08 12:14:11;;;;;;;10.23;3.10;;;7.90;50.20;;;;;;5018861;28;20525;-65
2022/03/08 12:16:42;;;;;;;8.00;2.93;;;8.10;50.30;;;;;;5039513;28;20412;-66
2022/03/08 12:19:09;;;;;;;6.83;2.90;;;8.20;50.50;;;;;;5037502;28;20439;-66
2022/03/08 12:21:41;;;;;;;7.93;3.30;;;8.40;49.10;;;;;;5035253;28;20455;-65
2022/03/08 12:24:09;;;;;;;11.57;2.93;;;7.90;49.90;;;;;;5030809;28;20425;-67
2022/03/08 12:26:41;;;;;;;5.60;3.07;;;8.00;49.30;;;;;;5034435;28;20479;-66
2022/03/08 12:29:10;;;;;;;5.23;3.40;;;7.80;48.20;;;;;;5034729;28;20457;-64
2022/03/08 12:31:57;;;;;;;4.70;2.70;;;7.80;48.00;;;;;;5036445;28;20433;-65
2022/03/08 12:34:46;;;;;;;6.27;3.63;;;7.80;48.60;;;;;;5037039;28;20472;-63
2022/03/08 12:37:11;;;;;;;7.70;3.73;;;8.00;49.40;;;;;;5033225;28;20433;-65
2022/03/08 12:39:49;;;;;;;7.30;3.93;;;8.10;50.10;;;;;;5033773;28;20438;-64
2022/03/08 12:42:30;;;;;;;6.20;3.43;;;7.80;49.90;;;;;;5036794;28;20658;-63